Latest Weather Observations for Canberra

IDN60801

Issued at 7:03 am EST Monday 20 April 2015 (issued every 30 minutes, with the page automatically refreshed every 10 minutes)

About weather observations | Map of weather stations | Latest weather observations for NSW | Other Formats
Station Details ID: 070351 Name: CANBERRA AIRPORT Lat: -35.31 Lon: 149.20 Height: 577.05 m
Data from the previous 72 hours. | See also: Recent months at Canberra
Date/Time
EST
Temp
°C
App
Temp
°C
Dew
Point
Rel
Hum
%
Delta-T
°C
Wind Press
QNH
hPa
Press
MSL
hPa
Rain
since 9 am
mm
Dir
 
Spd
km/h
Gust
km/h
Spd
kts
Gust
kts
20/07:00am 7.3 0.2 3.4 76 1.7 S 30 37 16 20 1028.3 - 2.2
20/06:30am 7.3 -0.2 3.4 76 1.7 S 32 50 17 27 1028.2 - 2.2
20/06:29am 7.3 -0.2 3.4 76 1.7 S 32 50 17 27 1028.1 - 2.2
20/06:00am 7.2 -1.3 3.4 77 1.7 S 37 54 20 29 1027.8 1027.3 2.2
20/05:54am 7.1 -1.0 3.3 77 1.7 S 35 54 19 29 1027.8 - 2.2
20/05:30am 7.3 -0.4 3.2 75 1.8 S 33 46 18 25 1027.3 - 2.2
20/05:00am 7.1 0.7 3.0 75 1.8 S 26 37 14 20 1027.2 - 2.2
20/04:30am 7.1 0.7 3.2 76 1.7 S 26 41 14 22 1027.6 - 2.2
20/04:00am 6.9 0.9 3.3 78 1.6 S 24 32 13 17 1027.5 - 2.2
20/03:30am 6.9 -0.2 3.5 79 1.5 S 30 43 16 23 1027.3 - 2.0
20/03:00am 7.3 1.2 3.0 74 1.9 S 24 32 13 17 1028.0 1027.5 2.0
20/02:30am 7.5 1.8 3.0 73 2.0 S 22 32 12 17 1028.1 - 2.0
20/02:00am 7.5 1.5 3.2 74 1.9 S 24 32 13 17 1028.3 - 2.0
20/01:30am 7.4 0.2 3.1 74 1.9 S 30 41 16 22 1028.2 - 2.0
20/01:00am 7.6 -0.1 3.3 74 1.9 S 33 52 18 28 1028.3 - 2.0
20/12:52am 7.6 0.1 3.3 74 1.9 S 32 52 17 28 1028.1 - 2.0
20/12:30am 7.7 1.0 3.4 74 1.9 S 28 39 15 21 1028.3 - 2.0
20/12:00am 7.9 0.4 3.2 72 2.1 S 32 41 17 22 1028.1 1027.6 2.0
 
Date/Time
EST
Temp
°C
App
Temp
°C
Dew
Point
Rel
Hum
%
Delta-T
°C
Wind Press
QNH
hPa
Press
MSL
hPa
Rain
since 9 am
mm
Dir
 
Spd
km/h
Gust
km/h
Spd
kts
Gust
kts
19/11:30pm 8.0 2.0 3.3 72 2.1 S 24 32 13 17 1028.5 - 2.0
19/11:00pm 8.1 1.3 3.2 71 2.2 S 28 39 15 21 1028.3 - 2.0
19/10:30pm 8.4 0.8 2.8 68 2.5 S 32 41 17 22 1028.1 - 2.0
19/10:00pm 8.4 2.0 3.3 70 2.3 S 26 33 14 18 1028.0 - 2.0
19/09:30pm 8.5 2.1 3.4 70 2.3 S 26 37 14 20 1027.8 - 2.0
19/09:00pm 8.4 1.7 3.5 71 2.2 S 28 37 15 20 1027.6 1027.0 2.0
19/08:30pm 8.8 2.1 3.8 71 2.2 S 28 39 15 21 1027.4 - 2.0
19/08:00pm 9.3 4.2 4.3 71 2.3 S 20 30 11 16 1026.9 - 2.0
19/07:30pm 9.4 5.8 5.0 74 2.0 S 13 19 7 10 1026.3 - 2.0
19/07:00pm 9.4 4.6 5.4 76 1.9 S 20 30 11 16 1025.6 - 2.0
19/06:30pm 9.3 7.2 6.7 84 1.3 SSW 7 9 4 5 1025.4 - 1.8
19/06:00pm 9.2 6.6 6.3 82 1.4 SSE 9 11 5 6 1025.0 1024.4 1.8
19/05:30pm 9.4 5.6 5.9 79 1.7 SSE 15 24 8 13 1024.5 - 1.8
19/05:00pm 9.8 5.6 5.6 75 2.0 SSE 17 26 9 14 1024.1 - 1.8
19/04:30pm 10.2 4.1 4.8 69 2.5 S 26 37 14 20 1023.8 - 1.6
19/04:00pm 11.3 6.5 4.7 64 3.1 S 19 30 10 16 1023.2 - 1.6
19/03:30pm 10.9 7.0 5.4 69 2.6 S 15 24 8 13 1022.7 - 1.6
19/03:00pm 10.6 6.7 5.4 70 2.5 SSE 15 24 8 13 1022.3 1021.7 1.6
19/02:30pm 10.3 6.1 5.7 73 2.2 SSE 17 24 9 13 1022.0 - 1.6
19/02:00pm 10.1 6.0 6.4 78 1.8 S 17 26 9 14 1021.9 - 1.6
19/01:30pm 9.0 2.1 6.3 83 1.3 S 32 39 17 21 1022.0 - 1.6
19/01:28pm 9.1 2.6 6.7 85 1.2 S 30 39 16 21 1022.0 - 1.6
19/01:00pm 9.3 5.7 6.6 83 1.3 S 15 19 8 10 1021.5 - 1.6
19/12:30pm 8.7 4.3 7.2 90 0.7 S 20 28 11 15 1021.4 - 1.4
19/12:17pm 8.8 4.3 6.8 87 1.0 S 20 30 11 16 1021.3 - 0.6
19/12:14pm 8.9 4.0 6.7 86 1.1 S 22 30 12 16 1021.3 - 0.4
19/12:00pm 9.8 4.6 7.1 83 1.3 S 24 32 13 17 1021.2 1020.5 0.2
19/11:53am 10.2 5.5 7.8 85 1.2 S 22 30 12 16 1020.9 - 0.0
19/11:30am 10.8 3.9 7.1 78 1.8 S 33 41 18 22 1020.7 - 0.0
19/11:00am 15.4 12.0 10.6 73 2.6 NNW 19 26 10 14 1020.3 - 0.0
19/10:30am 15.4 11.8 10.6 73 2.6 N 20 26 11 14 1020.2 - 0.0
19/10:00am 14.1 10.5 9.7 75 2.3 NNW 19 26 10 14 1020.0 - 0.0
19/09:30am 13.8 10.0 9.8 77 2.1 N 20 26 11 14 1020.0 - 0.0
19/09:00am 13.5 9.6 9.6 77 2.1 NNW 20 26 11 14 1020.1 1019.4 5.2
19/08:30am 13.0 11.2 9.6 80 1.8 NNW 9 19 5 10 1019.8 - 5.2
19/08:00am 12.0 8.8 8.5 79 1.8 N 15 19 8 10 1019.4 - 5.2
19/07:30am 11.0 7.6 7.7 80 1.6 N 15 19 8 10 1018.8 - 5.2
19/07:00am 9.9 6.7 6.8 81 1.5 N 13 15 7 8 1018.4 - 5.2
19/06:30am 7.8 5.0 5.3 84 1.2 NNW 9 13 5 7 1017.8 - 5.2
19/06:00am 9.2 6.7 6.6 84 1.2 WNW 9 11 5 6 1017.4 1016.7 5.2
19/05:30am 10.2 8.2 6.2 76 1.9 WNW 6 9 3 5 1017.0 - 5.2
19/05:00am 10.4 7.6 7.1 80 1.6 NNE 11 15 6 8 1016.5 - 5.2
19/04:30am 9.6 6.9 7.2 85 1.2 W 11 19 6 10 1016.3 - 5.2
19/04:00am 11.4 8.9 8.4 82 1.5 N 11 17 6 9 1015.8 - 5.2
19/03:30am 10.9 8.0 8.3 84 1.3 WNW 13 19 7 10 1015.6 - 5.2
19/03:00am 12.4 9.4 10.6 89 1.0 NW 17 20 9 11 1015.4 1014.7 5.2
19/02:30am 13.0 10.7 11.7 92 0.7 NW 15 15 8 8 1015.6 - 5.2
19/02:00am 13.6 12.1 13.0 96 0.3 NW 13 17 7 9 1015.7 - 5.2
19/01:30am 13.6 12.1 13.1 97 0.3 N 13 17 7 9 1015.7 - 5.2
19/01:00am 14.0 11.3 13.4 96 0.3 NW 20 26 11 14 1015.7 - 5.2
19/12:30am 14.0 11.7 13.1 94 0.5 NNW 17 24 9 13 1015.4 - 5.2
19/12:00am 14.4 11.7 13.4 94 0.6 NNW 20 26 11 14 1015.3 1014.6 5.2
 
Date/Time
EST
Temp
°C
App
Temp
°C
Dew
Point
Rel
Hum
%
Delta-T
°C
Wind Press
QNH
hPa
Press
MSL
hPa
Rain
since 9 am
mm
Dir
 
Spd
km/h
Gust
km/h
Spd
kts
Gust
kts
18/11:30pm 14.6 11.9 13.5 93 0.6 NNW 20 26 11 14 1015.2 - 5.2
18/11:00pm 14.5 12.7 13.4 93 0.6 N 15 19 8 10 1015.0 - 5.0
18/10:30pm 14.8 12.1 13.5 92 0.7 N 20 28 11 15 1015.1 - 5.0
18/10:00pm 14.7 12.3 13.9 95 0.5 N 19 26 10 14 1015.3 - 5.0
18/09:30pm 14.8 12.9 14.2 96 0.3 N 17 26 9 14 1015.0 - 5.0
18/09:29pm 14.8 12.9 14.2 96 0.3 N 17 26 9 14 1015.0 - 5.0
18/09:16pm 14.8 12.0 14.3 97 0.3 NNW 22 28 12 15 1015.2 - 5.0
18/09:00pm 15.0 11.0 14.2 95 0.5 NNW 28 35 15 19 1015.3 1014.6 5.0
18/08:30pm 15.3 12.1 14.3 94 0.6 NNW 24 32 13 17 1014.9 - 4.6
18/08:00pm 15.4 12.7 14.6 95 0.5 NNW 22 28 12 15 1014.6 - 4.6
18/07:30pm 15.7 14.4 14.9 95 0.5 NNW 15 19 8 10 1014.4 - 4.6
18/07:00pm 16.2 13.8 15.4 95 0.5 NNW 22 32 12 17 1014.7 - 4.0
18/06:30pm 16.3 15.0 15.7 96 0.4 NNW 17 24 9 13 1014.1 - 2.6
18/06:00pm 16.8 14.6 14.8 88 1.2 NNW 20 30 11 16 1014.0 1013.2 0.6
18/05:53pm 17.4 15.0 14.5 83 1.7 NNW 20 28 11 15 1014.0 - 0.2
18/05:30pm 18.3 16.3 14.0 76 2.5 NW 17 20 9 11 1013.8 - 0.0
18/05:00pm 18.7 16.4 14.0 74 2.8 NW 19 24 10 13 1013.5 - 0.0
18/04:30pm 19.3 16.0 13.9 71 3.2 NNW 24 33 13 18 1013.7 - 0.0
18/04:00pm 19.7 15.5 13.6 68 3.6 NNW 28 37 15 20 1013.7 - 0.0
18/03:30pm 20.4 15.8 13.4 64 4.1 NNW 30 37 16 20 1013.7 - 0.0
18/03:00pm 20.8 16.3 13.7 64 4.2 NW 30 41 16 22 1014.1 1013.3 0.0
18/02:30pm 20.5 16.0 13.7 65 4.0 NNW 30 39 16 21 1014.5 - 0.0
18/02:00pm 22.1 17.8 14.5 62 4.6 NNW 30 41 16 22 1014.6 - 0.0
18/01:30pm 20.6 16.9 14.0 66 3.9 NW 26 35 14 19 1015.0 - 0.0
18/01:00pm 20.8 17.1 14.9 69 3.6 NW 28 35 15 19 1015.6 - 0.0
18/12:30pm 19.3 16.1 14.3 73 3.0 NW 24 32 13 17 1016.1 - 0.0
18/12:00pm 20.2 15.4 14.1 68 3.6 NW 32 44 17 24 1016.5 1015.8 0.0
18/11:30am 19.5 14.8 14.3 72 3.1 NNW 32 44 17 24 1017.2 - 0.0
18/11:00am 19.4 15.3 14.9 75 2.7 NNW 30 46 16 25 1017.8 - 0.0
18/10:39am 19.3 15.2 14.8 75 2.7 NNW 30 52 16 28 1017.9 - 0.0
18/10:30am 19.4 15.2 14.6 74 2.9 NNW 30 39 16 21 1018.0 - 0.0
18/10:00am 19.6 15.1 15.0 75 2.8 NW 32 41 17 22 1018.2 - 0.0
18/09:30am 19.3 16.0 15.0 76 2.6 NNW 26 41 14 22 1018.3 - 0.0
18/09:00am 18.8 16.3 15.1 79 2.2 N 22 28 12 15 1018.2 1017.5 5.4
18/08:30am 18.3 15.6 15.6 84 1.6 NNW 24 32 13 17 1018.3 - 5.4
18/08:00am 17.4 14.5 15.2 87 1.3 NNW 24 32 13 17 1018.2 - 5.4
18/07:30am 16.7 14.7 15.4 92 0.8 NNW 20 26 11 14 1018.4 - 5.4
18/07:00am 13.0 12.5 12.8 99 0.1 E 7 9 4 5 1018.1 - 5.4
18/06:56am 13.0 12.5 12.8 99 0.1 ESE 7 9 4 5 1018.1 - 5.4
18/06:49am 12.5 12.1 12.3 99 0.1 E 6 7 3 4 1018.1 - 5.4
18/06:30am 12.2 11.7 12.0 99 0.1 E 6 7 3 4 1018.0 - 5.4
18/06:27am 12.2 11.7 12.0 99 0.1 E 6 9 3 5 1018.0 - 5.4
18/06:00am 12.1 11.6 11.9 99 0.1 SSW 6 9 3 5 1017.6 1016.9 5.4
18/05:39am 11.6 10.9 11.4 99 0.1 S 6 9 3 5 1017.2 - 5.4
18/05:30am 11.5 11.9 11.3 99 0.1 CALM 0 0 0 0 1017.0 - 5.4
18/05:00am 12.0 12.6 11.8 99 0.1 CALM 0 0 0 0 1017.0 - 5.4
18/04:51am 12.2 12.8 12.0 99 0.1 CALM 0 0 0 0 1017.0 - 5.4
18/04:47am 12.1 12.7 11.9 99 0.1 CALM 0 0 0 0 1017.0 - 5.4
18/04:30am 12.1 11.6 11.9 99 0.1 ESE 6 7 3 4 1016.8 - 5.4
18/04:00am 12.3 11.8 12.1 99 0.1 E 6 7 3 4 1016.9 - 5.4
18/03:58am 12.4 11.9 12.2 99 0.1 E 6 7 3 4 1016.9 - 5.4
18/03:30am 12.6 12.0 12.4 99 0.1 E 7 7 4 4 1017.1 - 5.4
18/03:24am 12.5 12.5 12.3 99 0.1 ENE 4 7 2 4 1017.1 - 5.4
18/03:11am 12.6 13.4 12.4 99 0.1 CALM 0 0 0 0 1017.2 - 5.4
18/03:00am 12.9 13.4 12.7 99 0.1 NNE 2 6 1 3 1017.4 1016.7 5.4
18/02:55am 13.1 12.9 12.9 99 0.1 NNE 6 7 3 4 1017.4 - 5.4
18/02:41am 13.3 12.9 13.1 99 0.1 N 7 9 4 5 1017.4 - 5.4
18/02:30am 13.1 12.7 12.9 99 0.1 N 7 9 4 5 1017.4 - 5.4
18/02:23am 13.2 12.4 13.0 99 0.1 N 9 9 5 5 1017.4 - 5.4
18/02:11am 12.9 12.0 12.7 99 0.1 N 9 11 5 6 1017.5 - 5.4
18/02:03am 13.0 13.1 12.8 99 0.1 N 4 9 2 5 1017.7 - 5.4
18/02:00am 13.2 13.8 13.0 99 0.1 N 2 7 1 4 1017.8 - 5.4
18/01:53am 13.5 14.2 13.3 99 0.1 N 2 7 1 4 1017.8 - 5.4
18/01:47am 13.8 14.9 13.6 99 0.1 CALM 0 6 0 3 1018.1 - 5.4
18/01:33am 13.8 14.9 13.6 99 0.1 CALM 0 0 0 0 1018.5 - 5.4
18/01:31am 13.8 14.9 13.6 99 0.1 CALM 0 0 0 0 1018.6 - 5.4
18/01:30am 13.7 14.8 13.5 99 0.1 CALM 0 0 0 0 1018.5 - 5.4
18/01:00am 13.5 14.5 13.3 99 0.1 CALM 0 0 0 0 1019.3 - 5.4
18/12:56am 13.6 14.7 13.4 99 0.1 CALM 0 0 0 0 1019.4 - 5.4
18/12:30am 13.8 14.9 13.6 99 0.1 CALM 0 0 0 0 1019.7 - 5.2
18/12:24am 13.9 15.1 13.7 99 0.1 CALM 0 0 0 0 1019.8 - 5.2
18/12:22am 13.9 15.1 13.7 99 0.1 CALM 0 0 0 0 1019.8 - 5.2
18/12:18am 13.9 15.1 13.7 99 0.1 CALM 0 0 0 0 1019.8 - 5.2
18/12:09am 13.8 14.9 13.6 99 0.1 CALM 0 0 0 0 1019.7 - 5.2
18/12:05am 13.8 14.9 13.6 99 0.1 CALM 0 0 0 0 1019.8 - 5.2
18/12:00am 13.8 14.9 13.6 99 0.1 CALM 0 0 0 0 1019.8 1019.1 5.2
 
Date/Time
EST
Temp
°C
App
Temp
°C
Dew
Point
Rel
Hum
%
Delta-T
°C
Wind Press
QNH
hPa
Press
MSL
hPa
Rain
since 9 am
mm
Dir
 
Spd
km/h
Gust
km/h
Spd
kts
Gust
kts
17/11:30pm 13.3 14.3 13.1 99 0.1 CALM 0 0 0 0 1019.9 - 5.2
17/11:00pm 13.3 14.3 13.1 99 0.1 CALM 0 0 0 0 1020.3 - 5.2
17/10:41pm 13.1 14.0 12.9 99 0.1 CALM 0 6 0 3 1020.5 - 5.2
17/10:30pm 13.5 13.8 13.3 99 0.1 ENE 4 7 2 4 1020.7 - 5.2
17/10:00pm 13.1 13.3 12.9 99 0.1 ESE 4 9 2 5 1020.9 - 5.2
17/09:34pm 13.5 14.5 13.2 98 0.2 CALM 0 0 0 0 1021.2 - 5.2
17/09:30pm 13.9 15.1 13.7 99 0.1 CALM 0 0 0 0 1021.2 - 5.2
17/09:17pm 14.2 15.5 14.0 99 0.1 CALM 0 0 0 0 1021.3 - 5.2
17/09:00pm 14.6 15.6 14.4 99 0.1 SSE 2 6 1 3 1021.4 1020.7 5.2
17/08:59pm 14.5 15.5 14.3 99 0.1 SSE 2 6 1 3 1021.4 - 5.2
17/08:53pm 14.6 15.3 14.4 99 0.1 SSE 4 6 2 3 1021.4 - 5.2
17/08:30pm 14.7 15.0 14.5 99 0.1 SE 6 7 3 4 1021.3 - 5.2
17/08:00pm 14.9 15.1 14.7 99 0.1 E 7 7 4 4 1021.6 - 5.2
17/07:30pm 15.4 15.7 15.1 98 0.2 N 7 9 4 5 1022.0 - 5.2
17/07:00pm 15.3 16.5 14.8 97 0.3 N 2 6 1 3 1021.6 - 5.2
17/06:30pm 15.6 15.6 15.3 98 0.2 NW 9 11 5 6 1021.6 - 5.0
17/06:00pm 15.7 16.0 14.9 95 0.5 NNE 7 9 4 5 1020.9 1020.3 5.0
17/05:30pm 16.0 15.9 15.0 94 0.6 N 9 11 5 6 1020.9 - 4.8
17/05:24pm 16.2 16.2 15.2 94 0.6 N 9 11 5 6 1020.9 - 4.8
17/05:00pm 16.5 16.7 15.7 95 0.5 N 9 13 5 7 1020.9 - 4.8
17/04:30pm 16.6 16.7 15.6 94 0.6 NNW 9 11 5 6 1021.3 - 4.4
17/04:00pm 16.6 16.0 15.6 94 0.6 N 13 17 7 9 1021.2 - 4.4
17/03:30pm 16.3 17.1 15.8 97 0.3 NE 6 9 3 5 1021.5 - 4.0
17/03:00pm 16.2 17.2 15.4 95 0.5 NE 4 6 2 3 1021.8 1021.1 3.6
17/02:30pm 15.9 17.2 15.1 95 0.5 NNE 2 7 1 4 1022.2 - 3.2
17/02:00pm 15.6 16.8 14.8 95 0.5 NE 2 6 1 3 1022.3 - 2.8
17/01:30pm 15.4 17.0 14.8 96 0.4 CALM 0 2 0 1 1022.7 - 2.4
17/01:00pm 15.1 15.2 14.5 96 0.4 SSW 7 9 4 5 1023.1 - 1.8
17/12:30pm 15.1 15.2 14.5 96 0.4 SSW 7 11 4 6 1023.6 - 1.4
17/12:00pm 14.8 14.3 13.8 94 0.6 S 9 11 5 6 1024.0 1023.4 1.2
17/11:30am 14.9 15.1 14.3 96 0.3 S 6 7 3 4 1024.3 - 1.0
17/11:00am 14.5 14.4 13.9 96 0.3 W 7 9 4 5 1025.0 - 0.8
17/10:30am 14.5 14.0 13.7 95 0.5 WSW 9 11 5 6 1025.3 - 0.6
17/10:00am 14.7 15.6 13.9 95 0.5 W 2 9 1 5 1025.4 - 0.0
17/09:56am 14.9 15.8 14.1 95 0.5 WSW 2 7 1 4 1025.5 - 0.0
17/09:30am 14.8 15.9 13.5 92 0.7 CALM 0 6 0 3 1025.6 - 0.0
17/09:00am 14.9 15.7 13.8 93 0.6 S 2 6 1 3 1025.7 1025.1 5.6
17/08:30am 14.6 14.7 14.0 96 0.3 SSE 6 7 3 4 1025.6 - 5.4
17/08:00am 14.4 14.6 14.1 98 0.2 SE 6 7 3 4 1025.5 - 5.4
17/07:30am 14.2 14.3 13.9 98 0.2 S 6 7 3 4 1025.5 - 4.8

Other Formats:

Comma delimited format used in spreadsheet applications
http://www.bom.gov.au/fwo/IDN60801/IDN60801.94926.axf

JavaScript Object Notation format (JSON) in row-major order
http://www.bom.gov.au/fwo/IDN60801/IDN60801.94926.json